Time;durP1;ratioP1;P1;durP2;ratioP2;P2;SDS_P1;SDS_P2;PMS_P1;PMS_P2;Temp;Humidity;BMP_temperature;BMP_pressure;BME280_temperature;BME280_humidity;BME280_pressure;Samples;Min_cycle;Max_cycle;Signal;HPM_P1;HPM_P2
2022/03/30 00:00:49;;;;;;;;;;;23.60;32.50;;;;;;1558030;75;777;-69
2022/03/30 00:02:51;;;;;;;;;;;23.70;32.60;;;;;;1563869;75;730;-68
2022/03/30 00:04:53;;;;;;;;;;;23.70;32.70;;;;;;1560576;75;1132;-67
2022/03/30 00:06:55;;;;;;;;;;;23.70;32.60;;;;;;1567750;75;771;-67
2022/03/30 00:08:57;;;;;;;;;;;23.60;32.50;;;;;;1566165;75;737;-68
2022/03/30 00:10:59;;;;;;;;;;;23.70;32.70;;;;;;1564788;75;785;-67
2022/03/30 00:13:01;;;;;;;;;;;23.60;32.60;;;;;;1565777;75;792;-68
2022/03/30 00:15:03;;;;;;;;;;;23.70;32.90;;;;;;1556237;75;1927;-67
2022/03/30 00:17:05;;;;;;;;;;;23.60;32.80;;;;;;1560461;75;694;-66
2022/03/30 00:19:06;;;;;;;;;;;23.60;32.80;;;;;;1564476;75;730;-67
2022/03/30 00:21:08;;;;;;;;;;;23.50;32.80;;;;;;1562236;75;683;-67
2022/03/30 00:23:10;;;;;;;;;;;23.50;32.80;;;;;;1565284;75;683;-65
2022/03/30 00:25:12;;;;;;;;;;;23.60;32.80;;;;;;1559649;75;1132;-67
2022/03/30 00:27:14;;;;;;;;;;;23.60;32.80;;;;;;1564220;75;756;-67
2022/03/30 00:29:16;;;;;;;;;;;23.60;32.80;;;;;;1566508;75;829;-67
2022/03/30 00:31:18;;;;;;;;;;;23.40;32.70;;;;;;1562892;75;718;-67
2022/03/30 00:33:20;;;;;;;;;;;23.50;33.00;;;;;;1567846;75;653;-66
2022/03/30 00:35:22;;;;;;;;;;;23.60;32.90;;;;;;1572883;73;1947;-68
2022/03/30 00:37:24;;;;;;;;;;;23.60;33.00;;;;;;1562456;75;721;-66
2022/03/30 00:39:26;;;;;;;;;;;23.60;33.00;;;;;;1559356;75;694;-66
2022/03/30 00:41:28;;;;;;;;;;;23.60;33.00;;;;;;1563705;75;792;-68
2022/03/30 00:43:30;;;;;;;;;;;23.60;33.00;;;;;;1568858;75;753;-68
2022/03/30 00:45:32;;;;;;;;;;;23.60;32.90;;;;;;1563194;75;1109;-67
2022/03/30 00:47:34;;;;;;;;;;;23.60;32.90;;;;;;1561079;75;724;-67
2022/03/30 00:49:36;;;;;;;;;;;23.60;33.00;;;;;;1558506;75;686;-66
2022/03/30 00:51:37;;;;;;;;;;;23.60;33.10;;;;;;1562934;75;682;-66
2022/03/30 00:53:39;;;;;;;;;;;23.60;33.00;;;;;;1568522;75;748;-70
2022/03/30 00:55:41;;;;;;;;;;;23.60;33.00;;;;;;1564211;75;1942;-68
2022/03/30 00:57:43;;;;;;;;;;;23.60;33.00;;;;;;1571538;75;774;-67
2022/03/30 00:59:45;;;;;;;;;;;23.60;33.00;;;;;;1559896;75;783;-67
2022/03/30 01:01:47;;;;;;;;;;;23.50;33.10;;;;;;1571758;75;739;-69
2022/03/30 01:03:49;;;;;;;;;;;23.60;33.10;;;;;;1553505;75;672;-67
2022/03/30 01:05:51;;;;;;;;;;;23.50;33.10;;;;;;1567800;75;1144;-67
2022/03/30 01:07:53;;;;;;;;;;;23.50;33.10;;;;;;1572615;75;755;-67
2022/03/30 01:09:55;;;;;;;;;;;23.60;33.10;;;;;;1560862;75;740;-68
2022/03/30 01:11:57;;;;;;;;;;;23.50;33.10;;;;;;1571930;75;764;-67
2022/03/30 01:13:59;;;;;;;;;;;23.60;33.10;;;;;;1568969;75;743;-67
2022/03/30 01:16:02;;;;;;;;;;;23.60;33.10;;;;;;1543821;76;1944;-66
2022/03/30 01:18:04;;;;;;;;;;;23.60;33.10;;;;;;1560060;75;779;-66
2022/03/30 01:20:08;;;;;;;;;;;23.50;33.10;;;;;;1559103;75;788;-67
2022/03/30 01:22:10;;;;;;;;;;;23.50;33.20;;;;;;1553891;75;827;-66
2022/03/30 01:24:12;;;;;;;;;;;23.50;33.10;;;;;;1556521;75;731;-64
2022/03/30 01:26:14;;;;;;;;;;;23.60;33.10;;;;;;1565558;75;648;-67
2022/03/30 01:28:16;;;;;;;;;;;23.60;33.10;;;;;;1560421;75;804;-66
2022/03/30 01:32:38;;;;;;;;;;;23.60;33.10;;;;;;1561268;75;1644;-66
2022/03/30 01:34:40;;;;;;;;;;;23.50;33.10;;;;;;1529398;76;1141;-64
2022/03/30 01:36:42;;;;;;;;;;;23.50;33.10;;;;;;1572957;75;1939;-69
2022/03/30 01:38:44;;;;;;;;;;;23.50;33.10;;;;;;1559768;75;721;-66
2022/03/30 01:40:46;;;;;;;;;;;23.60;33.10;;;;;;1571476;75;738;-65
2022/03/30 01:42:48;;;;;;;;;;;23.50;33.10;;;;;;1549960;75;768;-66
2022/03/30 01:44:50;;;;;;;;;;;23.60;33.10;;;;;;1567648;75;1153;-66
2022/03/30 01:46:52;;;;;;;;;;;23.50;33.20;;;;;;1573892;75;776;-66
2022/03/30 01:48:54;;;;;;;;;;;23.50;33.20;;;;;;1567779;75;750;-67
2022/03/30 01:50:56;;;;;;;;;;;23.50;33.20;;;;;;1568503;75;845;-66
2022/03/30 01:52:59;;;;;;;;;;;23.50;33.10;;;;;;1563508;75;734;-66
2022/03/30 01:55:01;;;;;;;;;;;23.50;33.20;;;;;;1567953;75;1187;-66
2022/03/30 01:57:03;;;;;;;;;;;23.60;33.10;;;;;;1572530;75;1957;-66
2022/03/30 01:59:06;;;;;;;;;;;23.50;33.10;;;;;;1569384;75;761;-66
2022/03/30 02:01:09;;;;;;;;;;;23.50;33.20;;;;;;1560565;75;745;-66
2022/03/30 02:03:12;;;;;;;;;;;23.50;33.20;;;;;;1568479;75;1016;-66
2022/03/30 02:05:16;;;;;;;;;;;23.50;33.20;;;;;;1566685;75;1196;-67
2022/03/30 02:07:20;;;;;;;;;;;23.50;33.30;;;;;;1565824;75;1320;-68
2022/03/30 02:09:21;;;;;;;;;;;23.50;33.20;;;;;;1559422;75;1546;-66
2022/03/30 02:11:24;;;;;;;;;;;23.50;33.30;;;;;;1562248;75;728;-65
2022/03/30 02:13:27;;;;;;;;;;;23.50;33.30;;;;;;1571111;75;745;-66
2022/03/30 02:15:29;;;;;;;;;;;23.50;33.40;;;;;;1564308;75;1923;-66
2022/03/30 02:17:31;;;;;;;;;;;23.50;33.40;;;;;;1567095;75;951;-66
2022/03/30 02:19:33;;;;;;;;;;;23.50;33.40;;;;;;1573384;75;777;-66
2022/03/30 02:21:34;;;;;;;;;;;23.50;33.30;;;;;;1567818;75;724;-66
2022/03/30 02:23:36;;;;;;;;;;;23.50;33.40;;;;;;1570314;75;817;-66
2022/03/30 02:25:38;;;;;;;;;;;23.60;33.30;;;;;;1562995;75;1158;-67
2022/03/30 02:27:40;;;;;;;;;;;23.60;33.20;;;;;;1563388;75;801;-64
2022/03/30 02:29:42;;;;;;;;;;;23.70;33.20;;;;;;1559420;75;792;-68
2022/03/30 02:31:44;;;;;;;;;;;23.70;33.20;;;;;;1568550;75;992;-67
2022/03/30 02:33:46;;;;;;;;;;;23.70;33.20;;;;;;1571514;75;684;-66
2022/03/30 02:35:48;;;;;;;;;;;23.70;33.20;;;;;;1557023;75;1942;-66
2022/03/30 02:37:54;;;;;;;;;;;23.80;33.10;;;;;;1568835;75;757;-66
2022/03/30 02:39:53;;;;;;;;;;;23.80;33.10;;;;;;1564021;75;1601;-67
2022/03/30 02:41:55;;;;;;;;;;;23.80;33.10;;;;;;1569584;75;735;-68
2022/03/30 02:43:57;;;;;;;;;;;23.80;33.00;;;;;;1560358;75;820;-67
2022/03/30 02:45:59;;;;;;;;;;;23.80;33.10;;;;;;1566150;75;1108;-68
2022/03/30 02:48:19;;;;;;;;;;;23.90;33.20;;;;;;1568674;75;758;-65
2022/03/30 02:50:21;;;;;;;;;;;23.80;33.40;;;;;;1559608;76;676;-66
2022/03/30 02:52:22;;;;;;;;;;;23.70;33.50;;;;;;1560023;75;803;-66
2022/03/30 02:56:47;;;;;;;;;;;23.70;33.90;;;;;;1563120;75;1934;-68
2022/03/30 02:58:49;;;;;;;;;;;23.60;34.00;;;;;;1562974;75;699;-70
2022/03/30 03:00:51;;;;;;;;;;;23.60;33.90;;;;;;1565465;75;771;-69
2022/03/30 03:02:53;;;;;;;;;;;23.70;34.00;;;;;;1562127;75;736;-69
2022/03/30 03:04:55;;;;;;;;;;;23.80;33.90;;;;;;1562764;75;1218;-70
2022/03/30 03:06:56;;;;;;;;;;;23.90;33.90;;;;;;1561719;76;709;-70
2022/03/30 03:08:58;;;;;;;;;;;23.90;33.70;;;;;;1534569;77;721;-70
2022/03/30 03:11:00;;;;;;;;;;;23.90;33.80;;;;;;1540646;77;719;-71
2022/03/30 03:13:07;;;;;;;;;;;23.90;33.70;;;;;;1536706;77;775;-71
2022/03/30 03:15:06;;;;;;;;;;;23.90;33.80;;;;;;1536868;77;1277;-70
2022/03/30 03:17:08;;;;;;;;;;;23.90;33.80;;;;;;1534807;77;1955;-70
2022/03/30 03:19:10;;;;;;;;;;;23.90;33.70;;;;;;1538657;77;791;-70
2022/03/30 03:21:12;;;;;;;;;;;24.00;33.60;;;;;;1538571;77;705;-71
2022/03/30 03:23:14;;;;;;;;;;;24.00;33.60;;;;;;1538005;77;659;-70
2022/03/30 03:25:16;;;;;;;;;;;23.90;33.60;;;;;;1536575;77;1163;-72
2022/03/30 03:27:18;;;;;;;;;;;24.00;33.50;;;;;;1538658;77;783;-72
2022/03/30 03:29:20;;;;;;;;;;;24.10;33.50;;;;;;1524006;77;791;-72
2022/03/30 03:31:22;;;;;;;;;;;24.10;33.50;;;;;;1529333;77;673;-72
2022/03/30 03:33:24;;;;;;;;;;;24.10;33.40;;;;;;1534753;77;708;-71
2022/03/30 03:35:26;;;;;;;;;;;24.10;33.40;;;;;;1526914;76;1118;-72
2022/03/30 03:37:28;;;;;;;;;;;24.10;33.40;;;;;;1530961;77;1933;-70
2022/03/30 03:39:30;;;;;;;;;;;24.20;33.20;;;;;;1539165;77;783;-71
2022/03/30 03:41:32;;;;;;;;;;;24.20;33.20;;;;;;1528447;77;717;-70
2022/03/30 03:43:34;;;;;;;;;;;24.20;33.10;;;;;;1537545;77;717;-71
2022/03/30 03:45:36;;;;;;;;;;;24.20;33.10;;;;;;1529443;76;1165;-70
2022/03/30 03:47:38;;;;;;;;;;;24.20;33.10;;;;;;1534054;77;770;-68
2022/03/30 03:49:40;;;;;;;;;;;24.20;33.20;;;;;;1532612;76;763;-66
2022/03/30 03:51:42;;;;;;;;;;;24.10;33.20;;;;;;1542879;76;789;-69
2022/03/30 03:53:44;;;;;;;;;;;24.10;33.40;;;;;;1535722;76;684;-70
2022/03/30 03:55:46;;;;;;;;;;;24.10;33.40;;;;;;1524056;77;1123;-71
2022/03/30 03:57:47;;;;;;;;;;;24.00;33.40;;;;;;1517942;77;1949;-69
2022/03/30 03:59:49;;;;;;;;;;;24.00;33.50;;;;;;1526855;77;758;-69
2022/03/30 04:01:52;;;;;;;;;;;24.00;33.50;;;;;;1532614;77;683;-69
2022/03/30 04:03:53;;;;;;;;;;;24.00;33.60;;;;;;1520201;77;730;-68
2022/03/30 04:05:55;;;;;;;;;;;24.00;33.60;;;;;;1512218;77;1152;-72
2022/03/30 04:07:57;;;;;;;;;;;23.90;33.70;;;;;;1539930;76;758;-70
2022/03/30 04:10:00;;;;;;;;;;;24.00;33.60;;;;;;1515232;78;712;-68
2022/03/30 04:12:02;;;;;;;;;;;24.00;33.60;;;;;;1514918;78;744;-71
2022/03/30 04:14:04;;;;;;;;;;;23.90;33.80;;;;;;1510327;78;821;-68
2022/03/30 04:16:06;;;;;;;;;;;23.90;33.90;;;;;;1534057;76;1960;-68
2022/03/30 04:18:08;;;;;;;;;;;23.90;33.90;;;;;;1515168;78;790;-68
2022/03/30 04:20:10;;;;;;;;;;;23.90;33.90;;;;;;1515144;78;789;-69
2022/03/30 04:22:12;;;;;;;;;;;23.90;33.90;;;;;;1542798;76;765;-68
2022/03/30 04:24:14;;;;;;;;;;;23.90;33.90;;;;;;1537953;75;776;-69
2022/03/30 04:26:16;;;;;;;;;;;23.90;34.00;;;;;;1540267;76;1120;-70
2022/03/30 04:28:17;;;;;;;;;;;23.80;34.00;;;;;;1515341;78;704;-68
2022/03/30 04:30:20;;;;;;;;;;;23.80;34.00;;;;;;1515375;77;754;-68
2022/03/30 04:32:22;;;;;;;;;;;23.80;34.10;;;;;;1553113;76;858;-67
2022/03/30 04:34:24;;;;;;;;;;;23.90;34.10;;;;;;1552912;76;797;-68
2022/03/30 04:36:26;;;;;;;;;;;23.90;34.00;;;;;;1553285;76;1944;-68
2022/03/30 04:38:28;;;;;;;;;;;23.90;33.90;;;;;;1553327;76;781;-67
2022/03/30 04:40:30;;;;;;;;;;;24.00;34.10;;;;;;1539989;75;792;-67
2022/03/30 04:42:32;;;;;;;;;;;24.00;34.00;;;;;;1534928;76;681;-67
2022/03/30 04:44:34;;;;;;;;;;;24.00;34.00;;;;;;1534327;76;710;-68
2022/03/30 04:46:35;;;;;;;;;;;24.00;34.10;;;;;;1515546;78;782;-68
2022/03/30 04:48:37;;;;;;;;;;;23.90;34.30;;;;;;1540197;75;662;-65
2022/03/30 04:50:39;;;;;;;;;;;23.90;34.60;;;;;;1515457;78;706;-69
2022/03/30 04:52:41;;;;;;;;;;;23.80;34.90;;;;;;1552642;76;800;-64
2022/03/30 04:54:43;;;;;;;;;;;23.80;34.80;;;;;;1547626;76;1177;-65
2022/03/30 04:56:47;;;;;;;;;;;23.80;35.30;;;;;;1547683;76;1933;-65
2022/03/30 04:58:50;;;;;;;;;;;23.90;35.90;;;;;;1541652;76;1114;-67
2022/03/30 05:00:52;;;;;;;;;;;24.00;36.00;;;;;;1550859;75;693;-66
2022/03/30 05:02:54;;;;;;;;;;;24.10;35.70;;;;;;1544728;75;798;-67
2022/03/30 05:04:56;;;;;;;;;;;24.20;35.60;;;;;;1548594;75;1165;-65
2022/03/30 05:06:58;;;;;;;;;;;24.20;35.90;;;;;;1542894;76;766;-64
2022/03/30 05:08:59;;;;;;;;;;;24.20;35.70;;;;;;1537930;76;738;-65
2022/03/30 05:11:01;;;;;;;;;;;24.30;35.40;;;;;;1551865;75;755;-65
2022/03/30 05:13:04;;;;;;;;;;;24.30;35.50;;;;;;1539052;76;796;-66
2022/03/30 05:15:07;;;;;;;;;;;24.40;35.70;;;;;;1552057;76;1205;-65
2022/03/30 05:17:09;;;;;;;;;;;24.40;35.30;;;;;;1547980;75;1936;-64
2022/03/30 05:19:11;;;;;;;;;;;24.50;35.40;;;;;;1547098;75;806;-65
2022/03/30 05:21:12;;;;;;;;;;;24.50;35.20;;;;;;1548445;76;678;-65
2022/03/30 05:23:14;;;;;;;;;;;24.50;35.10;;;;;;1546291;76;784;-64
2022/03/30 05:25:19;;;;;;;;;;;24.50;35.10;;;;;;1547667;76;1134;-65
2022/03/30 05:27:20;;;;;;;;;;;24.60;35.00;;;;;;1548958;76;1676;-69
2022/03/30 05:29:22;;;;;;;;;;;24.60;35.00;;;;;;1544715;76;718;-68
2022/03/30 05:31:23;;;;;;;;;;;24.70;34.70;;;;;;1546502;76;680;-68
2022/03/30 05:33:25;;;;;;;;;;;24.60;34.60;;;;;;1539931;76;741;-65
2022/03/30 05:35:27;;;;;;;;;;;24.60;34.50;;;;;;1543097;75;1094;-65
2022/03/30 05:37:30;;;;;;;;;;;24.60;34.40;;;;;;1542770;76;1915;-66
2022/03/30 05:39:32;;;;;;;;;;;24.60;34.40;;;;;;1548589;75;809;-66
2022/03/30 05:41:34;;;;;;;;;;;24.60;34.40;;;;;;1547292;76;759;-65
2022/03/30 05:43:36;;;;;;;;;;;24.60;34.40;;;;;;1549772;76;677;-67
2022/03/30 05:45:38;;;;;;;;;;;24.60;34.40;;;;;;1549348;75;1130;-64
2022/03/30 05:47:39;;;;;;;;;;;24.50;34.40;;;;;;1549000;76;662;-65
2022/03/30 05:49:41;;;;;;;;;;;24.60;34.40;;;;;;1545495;76;750;-66
2022/03/30 05:51:44;;;;;;;;;;;24.50;34.40;;;;;;1553341;76;784;-69
2022/03/30 05:53:47;;;;;;;;;;;24.60;34.40;;;;;;1547228;76;725;-65
2022/03/30 05:55:49;;;;;;;;;;;24.60;34.10;;;;;;1552717;76;1187;-68
2022/03/30 05:57:51;;;;;;;;;;;24.50;33.70;;;;;;1553213;76;1942;-66
2022/03/30 05:59:52;;;;;;;;;;;24.50;33.50;;;;;;1553361;75;700;-65
2022/03/30 06:01:54;;;;;;;;;;;24.50;33.30;;;;;;1551553;76;771;-65
2022/03/30 06:03:56;;;;;;;;;;;24.50;33.30;;;;;;1548575;76;678;-67
2022/03/30 06:05:58;;;;;;;;;;;24.50;33.40;;;;;;1515193;78;1131;-65
2022/03/30 06:08:00;;;;;;;;;;;24.40;33.10;;;;;;1515155;78;803;-66
2022/03/30 06:10:02;;;;;;;;;;;24.30;33.10;;;;;;1514980;78;754;-64
2022/03/30 06:12:04;;;;;;;;;;;24.50;32.90;;;;;;1513245;78;814;-64
2022/03/30 06:14:06;;;;;;;;;;;24.50;32.60;;;;;;1534042;75;710;-65
2022/03/30 06:16:08;;;;;;;;;;;24.50;32.40;;;;;;1514916;78;1155;-64
2022/03/30 06:18:11;;;;;;;;;;;24.50;32.50;;;;;;1552252;76;1935;-65
2022/03/30 06:20:13;;;;;;;;;;;24.50;32.70;;;;;;1552384;76;781;-65
2022/03/30 06:22:15;;;;;;;;;;;24.40;32.60;;;;;;1552061;76;700;-66
2022/03/30 06:24:17;;;;;;;;;;;24.40;32.50;;;;;;1551008;76;705;-67
2022/03/30 06:26:19;;;;;;;;;;;24.30;32.60;;;;;;1553240;76;1126;-64
2022/03/30 06:28:27;;;;;;;;;;;24.30;32.80;;;;;;1553393;76;738;-65
2022/03/30 06:30:24;;;;;;;;;;;24.20;33.30;;;;;;1552644;76;1036;-65
2022/03/30 06:32:26;;;;;;;;;;;24.20;33.40;;;;;;1549316;76;664;-66
2022/03/30 06:34:28;;;;;;;;;;;24.10;33.50;;;;;;1551925;76;735;-67
2022/03/30 06:36:31;;;;;;;;;;;24.00;33.90;;;;;;1550820;76;1070;-66
2022/03/30 06:38:33;;;;;;;;;;;24.00;33.90;;;;;;1553230;76;1905;-65
2022/03/30 06:40:35;;;;;;;;;;;23.90;34.10;;;;;;1553357;76;687;-65
2022/03/30 06:42:38;;;;;;;;;;;24.00;33.50;;;;;;1551505;76;740;-65
2022/03/30 06:44:40;;;;;;;;;;;24.00;33.70;;;;;;1550759;76;1145;-63
2022/03/30 06:46:42;;;;;;;;;;;24.00;33.40;;;;;;1515448;78;715;-65
2022/03/30 06:48:45;;;;;;;;;;;24.00;34.20;;;;;;1514906;78;727;-67
2022/03/30 06:50:48;;;;;;;;;;;23.90;34.20;;;;;;1548976;76;721;-66
2022/03/30 06:52:50;;;;;;;;;;;23.90;34.10;;;;;;1550888;76;737;-66
2022/03/30 06:54:52;;;;;;;;;;;23.80;34.00;;;;;;1552446;76;1129;-65
2022/03/30 06:56:54;;;;;;;;;;;23.90;33.90;;;;;;1553187;76;1908;-66
2022/03/30 06:58:56;;;;;;;;;;;23.90;34.00;;;;;;1552758;76;770;-65
2022/03/30 07:00:59;;;;;;;;;;;23.90;33.90;;;;;;1547891;76;629;-66
2022/03/30 07:03:01;;;;;;;;;;;23.90;33.80;;;;;;1551156;76;787;-66
2022/03/30 07:05:03;;;;;;;;;;;23.90;33.90;;;;;;1552277;76;1182;-65
2022/03/30 07:11:44;;;;;;;;;;;24.00;33.50;;;;;;1552227;76;1811;-66
2022/03/30 07:13:46;;;;;;;;;;;24.00;33.40;;;;;;1551990;75;702;-65
2022/03/30 07:15:48;;;;;;;;;;;24.00;33.30;;;;;;1539768;76;1129;-65
2022/03/30 07:17:51;;;;;;;;;;;24.10;33.40;;;;;;1550922;76;1943;-67
2022/03/30 07:19:53;;;;;;;;;;;24.10;33.30;;;;;;1542778;76;702;-65
2022/03/30 07:21:55;;;;;;;;;;;24.10;33.40;;;;;;1552563;76;730;-65
2022/03/30 07:23:57;;;;;;;;;;;24.00;33.30;;;;;;1547284;76;808;-66
2022/03/30 07:26:00;;;;;;;;;;;24.00;33.30;;;;;;1551838;76;1169;-66
2022/03/30 07:28:03;;;;;;;;;;;24.00;33.30;;;;;;1553147;76;700;-65
2022/03/30 07:30:05;;;;;;;;;;;24.00;33.40;;;;;;1553158;76;834;-65
2022/03/30 07:32:07;;;;;;;;;;;24.00;33.40;;;;;;1553182;76;776;-66
2022/03/30 07:34:09;;;;;;;;;;;24.00;33.40;;;;;;1546728;76;676;-65
2022/03/30 07:36:11;;;;;;;;;;;24.00;33.40;;;;;;1553322;76;1149;-67
2022/03/30 07:38:14;;;;;;;;;;;24.00;33.40;;;;;;1553281;76;1947;-64
2022/03/30 07:40:17;;;;;;;;;;;24.10;33.40;;;;;;1553325;76;777;-65
2022/03/30 07:42:19;;;;;;;;;;;24.10;33.40;;;;;;1552298;76;726;-64
2022/03/30 07:44:21;;;;;;;;;;;24.00;33.20;;;;;;1553451;76;777;-64
2022/03/30 07:46:22;;;;;;;;;;;24.10;33.40;;;;;;1551153;76;1118;-64
2022/03/30 07:48:24;;;;;;;;;;;24.10;33.40;;;;;;1553548;76;561;-65
2022/03/30 07:50:26;;;;;;;;;;;24.00;33.50;;;;;;1542980;76;729;-66
2022/03/30 07:52:28;;;;;;;;;;;24.00;33.60;;;;;;1532389;76;733;-64
2022/03/30 07:54:30;;;;;;;;;;;23.90;33.60;;;;;;1534723;75;669;-64
2022/03/30 07:56:32;;;;;;;;;;;23.90;33.80;;;;;;1539312;76;1152;-63
2022/03/30 07:58:34;;;;;;;;;;;24.00;33.60;;;;;;1553304;76;2211;-65
2022/03/30 08:00:36;;;;;;;;;;;24.00;33.60;;;;;;1551576;76;726;-64
2022/03/30 08:02:37;;;;;;;;;;;24.00;33.50;;;;;;1550819;76;940;-67
2022/03/30 08:04:39;;;;;;;;;;;24.00;33.50;;;;;;1552274;76;1197;-69
2022/03/30 08:06:41;;;;;;;;;;;23.90;33.90;;;;;;1553340;76;793;-66
2022/03/30 08:08:43;;;;;;;;;;;23.80;33.90;;;;;;1548533;76;724;-64
2022/03/30 08:10:45;;;;;;;;;;;23.80;33.90;;;;;;1540543;76;743;-63
2022/03/30 08:12:48;;;;;;;;;;;23.90;34.00;;;;;;1514685;78;791;-63
2022/03/30 08:14:49;;;;;;;;;;;23.80;33.90;;;;;;1512534;78;1151;-64
2022/03/30 08:16:51;;;;;;;;;;;23.70;34.00;;;;;;1553233;76;742;-64
2022/03/30 08:18:53;;;;;;;;;;;23.70;34.10;;;;;;1546728;76;1946;-64
2022/03/30 08:23:15;;;;;;;;;;;23.70;34.30;;;;;;1550299;76;1657;-64
2022/03/30 08:25:17;;;;;;;;;;;23.60;34.30;;;;;;1552945;76;1078;-66
2022/03/30 08:27:20;;;;;;;;;;;23.50;34.40;;;;;;1533485;76;694;-64
2022/03/30 08:29:22;;;;;;;;;;;23.60;34.40;;;;;;1515157;77;677;-65
2022/03/30 08:31:23;;;;;;;;;;;23.60;34.40;;;;;;1515276;78;795;-66
2022/03/30 08:33:27;;;;;;;;;;;23.50;34.50;;;;;;1548177;76;745;-65
2022/03/30 08:35:29;;;;;;;;;;;23.50;34.60;;;;;;1552375;76;1126;-64
2022/03/30 08:37:31;;;;;;;;;;;23.50;34.60;;;;;;1532093;76;1945;-67
2022/03/30 08:39:36;;;;;;;;;;;23.40;34.60;;;;;;1515111;78;764;-65
2022/03/30 08:41:46;;;;;;;;;;;23.40;34.60;;;;;;1515334;78;926;-65
2022/03/30 08:43:47;;;;;;;;;;;23.40;34.60;;;;;;1540272;76;1020;-68
2022/03/30 08:45:49;;;;;;;;;;;23.40;34.70;;;;;;1542879;76;1095;-65
2022/03/30 08:47:51;;;;;;;;;;;23.40;34.70;;;;;;1553376;76;826;-64
2022/03/30 08:49:53;;;;;;;;;;;23.30;34.70;;;;;;1553312;76;835;-66
2022/03/30 08:51:55;;;;;;;;;;;23.30;34.80;;;;;;1549484;76;719;-66
2022/03/30 08:53:57;;;;;;;;;;;23.30;35.00;;;;;;1515240;78;778;-68
2022/03/30 08:55:59;;;;;;;;;;;23.30;34.90;;;;;;1513412;73;221454;-66
2022/03/30 08:58:01;;;;;;;;;;;23.30;34.80;;;;;;1554544;75;1923;-66
2022/03/30 09:00:07;;;;;;;;;;;23.30;35.00;;;;;;1551577;75;814;-66
2022/03/30 09:02:09;;;;;;;;;;;23.20;34.80;;;;;;1546175;75;1186;-65
2022/03/30 09:04:12;;;;;;;;;;;23.30;35.00;;;;;;1519850;77;776;-65
2022/03/30 09:06:14;;;;;;;;;;;23.30;35.00;;;;;;1503759;77;769;-66
2022/03/30 09:08:24;;;;;;;;;;;23.30;35.00;;;;;;1483652;78;1316;-66
2022/03/30 09:10:24;;;;;;;;;;;23.40;34.80;;;;;;1504300;77;1087;-66
2022/03/30 09:12:26;;;;;;;;;;;23.40;34.80;;;;;;1501442;77;1173;-66
2022/03/30 09:14:30;;;;;;;;;;;23.50;34.60;;;;;;1514434;77;718;-66
2022/03/30 09:16:41;;;;;;;;;;;23.60;34.40;;;;;;1506841;77;1743;-65
2022/03/30 09:18:45;;;;;;;;;;;23.60;34.40;;;;;;1513645;77;1919;-66
2022/03/30 09:20:47;;;;;;;;;;;23.60;34.20;;;;;;1502618;77;1659;-67
2022/03/30 09:22:50;;;;;;;;;;;23.60;34.20;;;;;;1506405;77;1184;-69
2022/03/30 09:24:52;;;;;;;;;;;23.70;34.20;;;;;;1505337;77;718;-67
2022/03/30 09:26:54;;;;;;;;;;;23.80;33.90;;;;;;1492724;77;1236;-66
2022/03/30 09:28:56;;;;;;;;;;;23.90;33.80;;;;;;1508317;77;707;-67
2022/03/30 09:30:58;;;;;;;;;;;23.80;33.90;;;;;;1517129;77;812;-66
2022/03/30 09:33:00;;;;;;;;;;;23.70;33.90;;;;;;1511556;77;1153;-66
2022/03/30 09:35:02;;;;;;;;;;;23.90;33.80;;;;;;1513942;77;717;-66
2022/03/30 09:37:04;;;;;;;;;;;24.00;33.50;;;;;;1509275;77;722;-67
2022/03/30 09:39:06;;;;;;;;;;;23.80;33.70;;;;;;1490435;79;1924;-67
2022/03/30 09:41:09;;;;;;;;;;;23.70;34.00;;;;;;1505650;77;695;-66
2022/03/30 09:43:14;;;;;;;;;;;23.70;34.20;;;;;;1506958;77;1109;-66
2022/03/30 09:45:18;;;;;;;;;;;23.60;34.30;;;;;;1509709;77;707;-67
2022/03/30 09:47:20;;;;;;;;;;;23.60;34.70;;;;;;1510526;77;1540;-66
2022/03/30 09:49:39;;;;;;;;;;;23.50;35.00;;;;;;1517747;77;762;-66
2022/03/30 09:51:41;;;;;;;;;;;23.40;34.90;;;;;;1510302;77;827;-66
2022/03/30 09:53:43;;;;;;;;;;;23.30;34.90;;;;;;1486985;78;781;-66
2022/03/30 09:55:52;;;;;;;;;;;23.30;35.00;;;;;;1523431;77;970;-66
2022/03/30 09:57:54;;;;;;;;;;;23.30;35.00;;;;;;1511041;77;708;-66
2022/03/30 10:00:03;;;;;;;;;;;23.30;35.00;;;;;;1491271;78;1946;-66
2022/03/30 10:02:08;;;;;;;;;;;23.30;35.10;;;;;;1510933;77;1157;-66
2022/03/30 10:04:09;;;;;;;;;;;23.30;35.30;;;;;;1510757;77;755;-66
2022/03/30 10:06:12;;;;;;;;;;;23.30;35.20;;;;;;1510917;77;702;-66
2022/03/30 10:08:15;;;;;;;;;;;23.30;35.30;;;;;;1520560;77;704;-66
2022/03/30 10:10:19;;;;;;;;;;;23.30;35.30;;;;;;1530101;77;760;-66
2022/03/30 10:12:21;;;;;;;;;;;23.30;35.30;;;;;;1525279;76;1166;-66
2022/03/30 10:14:23;;;;;;;;;;;23.30;35.20;;;;;;1516540;77;726;-66
2022/03/30 10:16:25;;;;;;;;;;;23.20;35.10;;;;;;1510457;77;698;-66
2022/03/30 10:18:27;;;;;;;;;;;23.30;35.00;;;;;;1520918;77;1928;-66
2022/03/30 10:20:31;;;;;;;;;;;23.30;35.10;;;;;;1511402;77;1203;-66
2022/03/30 10:22:40;;;;;;;;;;;23.30;35.10;;;;;;1510219;77;1637;-66
2022/03/30 10:24:50;;;;;;;;;;;23.20;35.00;;;;;;1513586;77;2176;-65
2022/03/30 10:26:57;;;;;;;;;;;23.20;35.20;;;;;;1510898;77;1637;-66
2022/03/30 10:29:01;;;;;;;;;;;23.30;35.20;;;;;;1508316;77;713;-66
2022/03/30 10:31:03;;;;;;;;;;;23.30;35.20;;;;;;1507577;77;696;-66
2022/03/30 10:33:05;;;;;;;;;;;23.30;35.20;;;;;;1511811;77;1154;-66
2022/03/30 10:35:13;;;;;;;;;;;23.30;35.20;;;;;;1510729;77;802;-66
2022/03/30 10:37:15;;;;;;;;;;;23.20;35.20;;;;;;1513480;77;755;-66
2022/03/30 10:39:24;;;;;;;;;;;23.20;35.10;;;;;;1494494;78;1928;-66
2022/03/30 10:41:23;;;;;;;;;;;23.30;35.10;;;;;;1510678;77;1440;-66
2022/03/30 10:43:25;;;;;;;;;;;23.40;34.90;;;;;;1517567;77;1151;-66
2022/03/30 10:45:31;;;;;;;;;;;23.60;34.60;;;;;;1510712;77;757;-66
2022/03/30 10:47:34;;;;;;;;;;;23.70;34.30;;;;;;1510898;77;689;-66
2022/03/30 10:49:57;;;;;;;;;;;23.70;34.30;;;;;;1511114;77;793;-66
2022/03/30 10:52:12;;;;;;;;;;;23.60;34.20;;;;;;1511348;77;1103;-67
2022/03/30 10:54:16;;;;;;;;;;;23.60;34.20;;;;;;1463491;78;1228;-66
2022/03/30 10:56:22;;;;;;;;;;;23.60;34.40;;;;;;1505303;77;1811;-66
2022/03/30 10:58:23;;;;;;;;;;;23.50;34.30;;;;;;1515209;77;1929;-66
2022/03/30 11:00:26;;;;;;;;;;;23.60;34.40;;;;;;1513171;77;700;-66
2022/03/30 11:02:29;;;;;;;;;;;23.50;34.40;;;;;;1511051;77;1203;-66
2022/03/30 11:04:32;;;;;;;;;;;23.50;34.40;;;;;;1493002;78;1269;-67
2022/03/30 11:06:37;;;;;;;;;;;23.50;34.40;;;;;;1510888;77;784;-66
2022/03/30 11:08:45;;;;;;;;;;;23.50;34.40;;;;;;1510532;77;832;-67
2022/03/30 11:10:48;;;;;;;;;;;23.50;34.40;;;;;;1510722;77;1591;-66
2022/03/30 11:13:06;;;;;;;;;;;23.50;34.40;;;;;;1511013;77;1157;-66
2022/03/30 11:15:09;;;;;;;;;;;23.60;34.40;;;;;;1509621;77;690;-66
2022/03/30 11:17:15;;;;;;;;;;;23.50;34.40;;;;;;1511260;77;732;-67
2022/03/30 11:19:17;;;;;;;;;;;23.50;34.50;;;;;;1512632;77;1902;-66
2022/03/30 11:21:19;;;;;;;;;;;23.50;34.40;;;;;;1508928;77;735;-66
2022/03/30 11:23:21;;;;;;;;;;;23.50;34.50;;;;;;1514252;77;1160;-66
2022/03/30 11:25:24;;;;;;;;;;;23.50;34.50;;;;;;1510827;77;728;-66
2022/03/30 11:27:26;;;;;;;;;;;23.50;34.60;;;;;;1510555;77;689;-66
2022/03/30 11:29:48;;;;;;;;;;;23.50;34.50;;;;;;1511001;77;737;-66
2022/03/30 11:31:48;;;;;;;;;;;23.50;34.60;;;;;;1509109;77;1521;-66
2022/03/30 11:34:08;;;;;;;;;;;23.50;34.60;;;;;;1511246;77;1072;-66
2022/03/30 11:36:10;;;;;;;;;;;23.50;34.60;;;;;;1513536;77;818;-66
2022/03/30 11:38:23;;;;;;;;;;;23.50;34.50;;;;;;1511253;77;735;-66
2022/03/30 11:40:25;;;;;;;;;;;23.50;34.60;;;;;;1514164;77;1897;-66
2022/03/30 11:42:27;;;;;;;;;;;23.40;34.50;;;;;;1511118;77;1147;-66
2022/03/30 11:45:30;;;;;;;;;;;23.50;34.70;;;;;;1511034;77;770;-66
2022/03/30 11:46:41;;;;;;;;;;;23.50;34.70;;;;;;1492173;77;1347;-66
2022/03/30 11:48:43;;;;;;;;;;;23.60;34.60;;;;;;1511036;77;736;-65
2022/03/30 11:50:53;;;;;;;;;;;23.60;34.60;;;;;;1511081;77;733;-66
2022/03/30 11:52:56;;;;;;;;;;;23.60;34.40;;;;;;1507948;77;1160;-66
2022/03/30 11:54:58;;;;;;;;;;;23.60;34.60;;;;;;1510728;77;878;-66
2022/03/30 11:57:00;;;;;;;;;;;23.50;34.70;;;;;;1510536;77;787;-66
2022/03/30 11:59:02;;;;;;;;;;;23.50;34.80;;;;;;1511151;77;1919;-66
2022/03/30 12:01:05;;;;;;;;;;;23.50;34.90;;;;;;1513324;77;721;-66
2022/03/30 12:03:07;;;;;;;;;;;23.40;34.90;;;;;;1511012;77;1201;-66
2022/03/30 12:05:09;;;;;;;;;;;23.40;34.80;;;;;;1510733;77;684;-65
2022/03/30 12:07:14;;;;;;;;;;;23.40;34.90;;;;;;1510822;77;772;-65
2022/03/30 12:09:16;;;;;;;;;;;23.30;35.00;;;;;;1510852;77;728;-66
2022/03/30 12:11:22;;;;;;;;;;;23.30;35.00;;;;;;1511035;77;792;-66
2022/03/30 12:13:24;;;;;;;;;;;23.30;35.00;;;;;;1510467;77;1251;-66
2022/03/30 12:15:26;;;;;;;;;;;23.20;35.00;;;;;;1510115;77;692;-66
2022/03/30 12:17:28;;;;;;;;;;;23.20;35.00;;;;;;1510870;77;724;-66
2022/03/30 12:19:30;;;;;;;;;;;23.20;35.10;;;;;;1510846;77;1941;-65
2022/03/30 12:21:38;;;;;;;;;;;23.20;35.10;;;;;;1510405;77;759;-66
2022/03/30 12:23:36;;;;;;;;;;;23.20;35.10;;;;;;1509787;77;1454;-67